sensor_id;sensor_type;location;lat;lon;timestamp;P1;durP1;ratioP1;P2;durP2;ratioP2
29362;SDS011;16349;53.672;10.014;2022-11-15T00:01:54;34.40;;;21.33;;
29362;SDS011;16349;53.672;10.014;2022-11-15T00:04:41;31.83;;;20.27;;
29362;SDS011;16349;53.672;10.014;2022-11-15T00:07:27;31.73;;;20.37;;
29362;SDS011;16349;53.672;10.014;2022-11-15T00:10:13;34.43;;;20.73;;
29362;SDS011;16349;53.672;10.014;2022-11-15T00:12:59;30.23;;;19.63;;
29362;SDS011;16349;53.672;10.014;2022-11-15T00:15:46;33.20;;;20.57;;
29362;SDS011;16349;53.672;10.014;2022-11-15T00:18:31;34.43;;;19.43;;
29362;SDS011;16349;53.672;10.014;2022-11-15T00:21:18;33.50;;;20.67;;
29362;SDS011;16349;53.672;10.014;2022-11-15T00:24:05;31.97;;;20.33;;
29362;SDS011;16349;53.672;10.014;2022-11-15T00:26:51;30.87;;;19.30;;
29362;SDS011;16349;53.672;10.014;2022-11-15T00:29:36;29.97;;;19.67;;
29362;SDS011;16349;53.672;10.014;2022-11-15T00:32:22;31.93;;;19.50;;
29362;SDS011;16349;53.672;10.014;2022-11-15T00:35:08;33.40;;;19.70;;
29362;SDS011;16349;53.672;10.014;2022-11-15T00:37:55;33.00;;;19.60;;
29362;SDS011;16349;53.672;10.014;2022-11-15T00:40:41;30.93;;;19.10;;
29362;SDS011;16349;53.672;10.014;2022-11-15T00:43:26;34.00;;;20.13;;
29362;SDS011;16349;53.672;10.014;2022-11-15T00:46:12;35.17;;;21.07;;
29362;SDS011;16349;53.672;10.014;2022-11-15T00:48:58;33.27;;;19.83;;
29362;SDS011;16349;53.672;10.014;2022-11-15T00:51:44;32.47;;;20.40;;
29362;SDS011;16349;53.672;10.014;2022-11-15T00:54:31;36.87;;;20.53;;
29362;SDS011;16349;53.672;10.014;2022-11-15T00:57:17;35.80;;;19.80;;
29362;SDS011;16349;53.672;10.014;2022-11-15T01:00:03;37.37;;;19.83;;
29362;SDS011;16349;53.672;10.014;2022-11-15T01:02:49;33.87;;;20.43;;
29362;SDS011;16349;53.672;10.014;2022-11-15T01:05:36;34.43;;;20.40;;
29362;SDS011;16349;53.672;10.014;2022-11-15T01:08:22;38.27;;;20.40;;
29362;SDS011;16349;53.672;10.014;2022-11-15T01:11:10;33.80;;;20.40;;
29362;SDS011;16349;53.672;10.014;2022-11-15T01:13:58;31.40;;;19.73;;
29362;SDS011;16349;53.672;10.014;2022-11-15T01:16:43;32.77;;;20.30;;
29362;SDS011;16349;53.672;10.014;2022-11-15T01:19:29;31.90;;;19.93;;
29362;SDS011;16349;53.672;10.014;2022-11-15T01:22:15;35.93;;;20.43;;
29362;SDS011;16349;53.672;10.014;2022-11-15T01:25:01;32.53;;;20.10;;
29362;SDS011;16349;53.672;10.014;2022-11-15T01:27:48;31.03;;;19.90;;
29362;SDS011;16349;53.672;10.014;2022-11-15T01:30:35;32.73;;;20.70;;
29362;SDS011;16349;53.672;10.014;2022-11-15T01:33:21;32.53;;;20.07;;
29362;SDS011;16349;53.672;10.014;2022-11-15T01:36:11;29.10;;;18.93;;
29362;SDS011;16349;53.672;10.014;2022-11-15T01:38:57;31.87;;;20.43;;
29362;SDS011;16349;53.672;10.014;2022-11-15T01:41:44;33.77;;;20.43;;
29362;SDS011;16349;53.672;10.014;2022-11-15T01:44:38;35.93;;;19.77;;
29362;SDS011;16349;53.672;10.014;2022-11-15T01:47:29;32.97;;;19.53;;
29362;SDS011;16349;53.672;10.014;2022-11-15T01:50:18;28.87;;;18.37;;
29362;SDS011;16349;53.672;10.014;2022-11-15T01:53:07;36.10;;;20.13;;
29362;SDS011;16349;53.672;10.014;2022-11-15T01:55:54;33.80;;;19.47;;
29362;SDS011;16349;53.672;10.014;2022-11-15T01:58:40;33.73;;;19.73;;
29362;SDS011;16349;53.672;10.014;2022-11-15T02:01:28;29.30;;;19.27;;
29362;SDS011;16349;53.672;10.014;2022-11-15T02:04:18;31.00;;;19.80;;
29362;SDS011;16349;53.672;10.014;2022-11-15T02:07:09;30.80;;;19.03;;
29362;SDS011;16349;53.672;10.014;2022-11-15T02:09:57;27.20;;;18.70;;
29362;SDS011;16349;53.672;10.014;2022-11-15T02:12:44;29.87;;;18.03;;
29362;SDS011;16349;53.672;10.014;2022-11-15T02:15:36;28.13;;;17.87;;
29362;SDS011;16349;53.672;10.014;2022-11-15T02:18:32;28.13;;;17.87;;
29362;SDS011;16349;53.672;10.014;2022-11-15T02:21:24;27.03;;;17.87;;
29362;SDS011;16349;53.672;10.014;2022-11-15T02:27:51;27.33;;;16.93;;
29362;SDS011;16349;53.672;10.014;2022-11-15T02:30:57;30.43;;;18.73;;
29362;SDS011;16349;53.672;10.014;2022-11-15T02:33:51;24.30;;;16.53;;
29362;SDS011;16349;53.672;10.014;2022-11-15T02:36:43;25.00;;;16.73;;
29362;SDS011;16349;53.672;10.014;2022-11-15T02:39:40;25.27;;;16.97;;
29362;SDS011;16349;53.672;10.014;2022-11-15T02:42:32;28.63;;;17.73;;
29362;SDS011;16349;53.672;10.014;2022-11-15T02:45:41;26.17;;;17.27;;
29362;SDS011;16349;53.672;10.014;2022-11-15T02:48:32;25.70;;;17.97;;
29362;SDS011;16349;53.672;10.014;2022-11-15T02:51:20;28.30;;;16.47;;
29362;SDS011;16349;53.672;10.014;2022-11-15T02:54:07;32.83;;;16.67;;
29362;SDS011;16349;53.672;10.014;2022-11-15T02:56:57;23.30;;;16.30;;
29362;SDS011;16349;53.672;10.014;2022-11-15T03:00:02;27.77;;;18.00;;
29362;SDS011;16349;53.672;10.014;2022-11-15T03:02:57;25.97;;;17.17;;
29362;SDS011;16349;53.672;10.014;2022-11-15T03:06:05;27.23;;;16.47;;
29362;SDS011;16349;53.672;10.014;2022-11-15T03:09:02;30.47;;;16.97;;
29362;SDS011;16349;53.672;10.014;2022-11-15T03:11:54;22.87;;;15.10;;
29362;SDS011;16349;53.672;10.014;2022-11-15T03:14:46;28.10;;;16.63;;
29362;SDS011;16349;53.672;10.014;2022-11-15T03:17:38;29.23;;;16.77;;
29362;SDS011;16349;53.672;10.014;2022-11-15T03:20:27;26.63;;;15.90;;
29362;SDS011;16349;53.672;10.014;2022-11-15T03:23:16;24.27;;;16.10;;
29362;SDS011;16349;53.672;10.014;2022-11-15T03:26:03;30.97;;;17.03;;
29362;SDS011;16349;53.672;10.014;2022-11-15T03:28:52;21.20;;;15.27;;
29362;SDS011;16349;53.672;10.014;2022-11-15T03:31:42;25.57;;;16.03;;
29362;SDS011;16349;53.672;10.014;2022-11-15T03:34:34;25.80;;;15.70;;
29362;SDS011;16349;53.672;10.014;2022-11-15T03:37:24;27.03;;;16.27;;
29362;SDS011;16349;53.672;10.014;2022-11-15T03:40:19;23.93;;;16.30;;
29362;SDS011;16349;53.672;10.014;2022-11-15T03:43:13;24.80;;;16.00;;
29362;SDS011;16349;53.672;10.014;2022-11-15T03:46:06;22.37;;;15.80;;
29362;SDS011;16349;53.672;10.014;2022-11-15T03:48:58;24.30;;;14.87;;
29362;SDS011;16349;53.672;10.014;2022-11-15T03:51:49;22.37;;;15.47;;
29362;SDS011;16349;53.672;10.014;2022-11-15T03:54:35;21.77;;;14.83;;
29362;SDS011;16349;53.672;10.014;2022-11-15T03:57:22;23.20;;;15.47;;
29362;SDS011;16349;53.672;10.014;2022-11-15T04:00:08;22.20;;;15.50;;
29362;SDS011;16349;53.672;10.014;2022-11-15T04:02:55;24.67;;;15.07;;
29362;SDS011;16349;53.672;10.014;2022-11-15T04:05:40;25.63;;;16.13;;
29362;SDS011;16349;53.672;10.014;2022-11-15T04:08:26;22.97;;;15.10;;
29362;SDS011;16349;53.672;10.014;2022-11-15T04:11:12;20.03;;;13.87;;
29362;SDS011;16349;53.672;10.014;2022-11-15T04:13:59;23.33;;;14.67;;
29362;SDS011;16349;53.672;10.014;2022-11-15T04:16:44;23.70;;;15.20;;
29362;SDS011;16349;53.672;10.014;2022-11-15T04:19:30;23.43;;;14.70;;
29362;SDS011;16349;53.672;10.014;2022-11-15T04:22:33;24.47;;;15.33;;
29362;SDS011;16349;53.672;10.014;2022-11-15T04:25:37;24.57;;;14.50;;
29362;SDS011;16349;53.672;10.014;2022-11-15T04:28:22;22.80;;;14.63;;
29362;SDS011;16349;53.672;10.014;2022-11-15T04:31:10;24.37;;;15.60;;
29362;SDS011;16349;53.672;10.014;2022-11-15T04:33:55;24.60;;;15.47;;
29362;SDS011;16349;53.672;10.014;2022-11-15T04:36:42;23.77;;;15.23;;
29362;SDS011;16349;53.672;10.014;2022-11-15T04:39:45;26.20;;;16.17;;
29362;SDS011;16349;53.672;10.014;2022-11-15T04:42:31;24.33;;;15.23;;
29362;SDS011;16349;53.672;10.014;2022-11-15T04:45:17;22.73;;;15.07;;
29362;SDS011;16349;53.672;10.014;2022-11-15T04:48:04;22.00;;;14.83;;
29362;SDS011;16349;53.672;10.014;2022-11-15T04:50:51;23.30;;;15.03;;
29362;SDS011;16349;53.672;10.014;2022-11-15T04:53:37;23.50;;;15.63;;
29362;SDS011;16349;53.672;10.014;2022-11-15T04:56:23;22.00;;;15.40;;
29362;SDS011;16349;53.672;10.014;2022-11-15T04:59:08;21.33;;;14.60;;
29362;SDS011;16349;53.672;10.014;2022-11-15T05:01:54;25.40;;;15.83;;
29362;SDS011;16349;53.672;10.014;2022-11-15T05:04:40;23.17;;;14.87;;
29362;SDS011;16349;53.672;10.014;2022-11-15T05:07:25;23.53;;;15.83;;
29362;SDS011;16349;53.672;10.014;2022-11-15T05:10:11;22.77;;;14.83;;
29362;SDS011;16349;53.672;10.014;2022-11-15T05:12:57;24.03;;;14.97;;
29362;SDS011;16349;53.672;10.014;2022-11-15T05:15:42;24.27;;;14.83;;
29362;SDS011;16349;53.672;10.014;2022-11-15T05:18:28;22.70;;;14.73;;
29362;SDS011;16349;53.672;10.014;2022-11-15T05:21:15;24.97;;;15.10;;
29362;SDS011;16349;53.672;10.014;2022-11-15T05:24:01;24.80;;;15.03;;
29362;SDS011;16349;53.672;10.014;2022-11-15T05:26:47;25.43;;;16.23;;
29362;SDS011;16349;53.672;10.014;2022-11-15T05:29:33;27.30;;;15.87;;
29362;SDS011;16349;53.672;10.014;2022-11-15T05:32:19;24.93;;;16.17;;
29362;SDS011;16349;53.672;10.014;2022-11-15T05:35:05;24.60;;;16.53;;
29362;SDS011;16349;53.672;10.014;2022-11-15T05:37:56;26.20;;;16.50;;
29362;SDS011;16349;53.672;10.014;2022-11-15T05:40:42;24.43;;;16.27;;
29362;SDS011;16349;53.672;10.014;2022-11-15T05:43:29;23.77;;;16.57;;
29362;SDS011;16349;53.672;10.014;2022-11-15T05:46:18;27.43;;;16.57;;
29362;SDS011;16349;53.672;10.014;2022-11-15T05:49:05;28.17;;;16.83;;
29362;SDS011;16349;53.672;10.014;2022-11-15T05:51:54;28.03;;;15.33;;
29362;SDS011;16349;53.672;10.014;2022-11-15T05:54:41;26.13;;;16.60;;
29362;SDS011;16349;53.672;10.014;2022-11-15T05:57:28;25.70;;;15.57;;
29362;SDS011;16349;53.672;10.014;2022-11-15T06:00:13;25.30;;;15.67;;
29362;SDS011;16349;53.672;10.014;2022-11-15T06:02:59;27.17;;;16.60;;
29362;SDS011;16349;53.672;10.014;2022-11-15T06:05:45;23.40;;;16.10;;
29362;SDS011;16349;53.672;10.014;2022-11-15T06:08:30;27.47;;;16.23;;
29362;SDS011;16349;53.672;10.014;2022-11-15T06:11:17;26.30;;;15.93;;
29362;SDS011;16349;53.672;10.014;2022-11-15T06:14:02;28.10;;;16.50;;
29362;SDS011;16349;53.672;10.014;2022-11-15T06:16:48;24.47;;;15.07;;
29362;SDS011;16349;53.672;10.014;2022-11-15T06:19:33;25.40;;;16.13;;
29362;SDS011;16349;53.672;10.014;2022-11-15T06:22:18;25.67;;;16.70;;
29362;SDS011;16349;53.672;10.014;2022-11-15T06:25:04;25.37;;;15.87;;
29362;SDS011;16349;53.672;10.014;2022-11-15T06:27:52;26.50;;;16.53;;
29362;SDS011;16349;53.672;10.014;2022-11-15T06:30:38;24.43;;;15.63;;
29362;SDS011;16349;53.672;10.014;2022-11-15T06:33:24;28.33;;;16.00;;
29362;SDS011;16349;53.672;10.014;2022-11-15T06:36:10;24.90;;;16.40;;
29362;SDS011;16349;53.672;10.014;2022-11-15T06:38:59;24.03;;;15.57;;
29362;SDS011;16349;53.672;10.014;2022-11-15T06:41:45;23.10;;;15.03;;
29362;SDS011;16349;53.672;10.014;2022-11-15T06:44:33;25.90;;;15.33;;
29362;SDS011;16349;53.672;10.014;2022-11-15T06:47:18;24.10;;;15.37;;
29362;SDS011;16349;53.672;10.014;2022-11-15T06:50:04;25.00;;;15.27;;
29362;SDS011;16349;53.672;10.014;2022-11-15T06:52:50;25.43;;;15.43;;
29362;SDS011;16349;53.672;10.014;2022-11-15T06:55:36;22.37;;;15.40;;
29362;SDS011;16349;53.672;10.014;2022-11-15T06:58:21;23.40;;;14.93;;
29362;SDS011;16349;53.672;10.014;2022-11-15T07:01:09;24.67;;;15.63;;
29362;SDS011;16349;53.672;10.014;2022-11-15T07:03:55;26.23;;;15.90;;
29362;SDS011;16349;53.672;10.014;2022-11-15T07:06:40;22.60;;;15.40;;
29362;SDS011;16349;53.672;10.014;2022-11-15T07:09:26;26.37;;;16.30;;
29362;SDS011;16349;53.672;10.014;2022-11-15T07:12:11;22.90;;;16.10;;
29362;SDS011;16349;53.672;10.014;2022-11-15T07:14:57;27.37;;;15.57;;
29362;SDS011;16349;53.672;10.014;2022-11-15T07:17:44;28.20;;;16.10;;
29362;SDS011;16349;53.672;10.014;2022-11-15T07:20:29;26.77;;;15.23;;
29362;SDS011;16349;53.672;10.014;2022-11-15T07:23:15;22.43;;;15.43;;
29362;SDS011;16349;53.672;10.014;2022-11-15T07:26:00;23.57;;;14.60;;
29362;SDS011;16349;53.672;10.014;2022-11-15T07:28:47;24.07;;;15.37;;
29362;SDS011;16349;53.672;10.014;2022-11-15T07:31:32;20.97;;;14.37;;
29362;SDS011;16349;53.672;10.014;2022-11-15T07:34:20;22.07;;;14.87;;
29362;SDS011;16349;53.672;10.014;2022-11-15T07:37:06;25.23;;;15.13;;
29362;SDS011;16349;53.672;10.014;2022-11-15T07:39:51;24.30;;;15.90;;
29362;SDS011;16349;53.672;10.014;2022-11-15T07:42:38;23.70;;;15.03;;
29362;SDS011;16349;53.672;10.014;2022-11-15T07:45:40;22.93;;;15.17;;
29362;SDS011;16349;53.672;10.014;2022-11-15T07:48:25;21.33;;;14.37;;
29362;SDS011;16349;53.672;10.014;2022-11-15T07:51:13;22.53;;;15.43;;
29362;SDS011;16349;53.672;10.014;2022-11-15T07:53:59;22.77;;;15.37;;
29362;SDS011;16349;53.672;10.014;2022-11-15T07:56:45;21.53;;;14.53;;
29362;SDS011;16349;53.672;10.014;2022-11-15T07:59:30;25.03;;;15.17;;
29362;SDS011;16349;53.672;10.014;2022-11-15T08:02:16;20.07;;;13.90;;
29362;SDS011;16349;53.672;10.014;2022-11-15T08:05:02;24.07;;;14.93;;
29362;SDS011;16349;53.672;10.014;2022-11-15T08:07:49;22.60;;;14.83;;
29362;SDS011;16349;53.672;10.014;2022-11-15T08:10:35;20.10;;;14.50;;
29362;SDS011;16349;53.672;10.014;2022-11-15T08:13:22;22.63;;;14.87;;
29362;SDS011;16349;53.672;10.014;2022-11-15T08:16:08;24.60;;;14.87;;
29362;SDS011;16349;53.672;10.014;2022-11-15T08:18:55;22.20;;;15.17;;
29362;SDS011;16349;53.672;10.014;2022-11-15T08:21:41;20.80;;;14.63;;
29362;SDS011;16349;53.672;10.014;2022-11-15T08:24:28;23.07;;;15.23;;
29362;SDS011;16349;53.672;10.014;2022-11-15T08:27:14;22.93;;;14.83;;
29362;SDS011;16349;53.672;10.014;2022-11-15T08:30:00;25.10;;;15.30;;
29362;SDS011;16349;53.672;10.014;2022-11-15T08:32:46;20.90;;;14.90;;
29362;SDS011;16349;53.672;10.014;2022-11-15T08:35:33;20.27;;;13.77;;
29362;SDS011;16349;53.672;10.014;2022-11-15T08:38:19;21.17;;;14.30;;
29362;SDS011;16349;53.672;10.014;2022-11-15T08:41:06;18.80;;;13.60;;
29362;SDS011;16349;53.672;10.014;2022-11-15T08:43:52;18.50;;;13.53;;
29362;SDS011;16349;53.672;10.014;2022-11-15T08:46:38;21.40;;;14.17;;
29362;SDS011;16349;53.672;10.014;2022-11-15T08:49:23;19.03;;;13.40;;
29362;SDS011;16349;53.672;10.014;2022-11-15T08:52:09;22.87;;;14.47;;
29362;SDS011;16349;53.672;10.014;2022-11-15T08:54:54;21.30;;;14.07;;
29362;SDS011;16349;53.672;10.014;2022-11-15T08:57:41;21.27;;;13.03;;
29362;SDS011;16349;53.672;10.014;2022-11-15T09:00:27;20.47;;;13.67;;
29362;SDS011;16349;53.672;10.014;2022-11-15T09:03:13;20.17;;;13.63;;
29362;SDS011;16349;53.672;10.014;2022-11-15T09:05:59;23.73;;;13.80;;
29362;SDS011;16349;53.672;10.014;2022-11-15T09:08:46;20.93;;;13.60;;
29362;SDS011;16349;53.672;10.014;2022-11-15T09:11:32;20.20;;;14.73;;
29362;SDS011;16349;53.672;10.014;2022-11-15T09:14:19;19.60;;;13.17;;
29362;SDS011;16349;53.672;10.014;2022-11-15T09:17:06;21.87;;;13.43;;
29362;SDS011;16349;53.672;10.014;2022-11-15T09:19:53;18.00;;;13.27;;
29362;SDS011;16349;53.672;10.014;2022-11-15T09:22:39;22.93;;;15.27;;
29362;SDS011;16349;53.672;10.014;2022-11-15T09:25:25;18.67;;;13.83;;
29362;SDS011;16349;53.672;10.014;2022-11-15T09:28:10;19.37;;;12.93;;
29362;SDS011;16349;53.672;10.014;2022-11-15T09:30:58;18.83;;;12.43;;
29362;SDS011;16349;53.672;10.014;2022-11-15T09:33:43;19.23;;;13.50;;
29362;SDS011;16349;53.672;10.014;2022-11-15T09:36:30;17.90;;;12.57;;
29362;SDS011;16349;53.672;10.014;2022-11-15T09:39:15;16.93;;;12.13;;
29362;SDS011;16349;53.672;10.014;2022-11-15T09:42:07;22.30;;;12.93;;
29362;SDS011;16349;53.672;10.014;2022-11-15T09:45:10;17.00;;;12.50;;
29362;SDS011;16349;53.672;10.014;2022-11-15T09:48:14;15.80;;;12.10;;
29362;SDS011;16349;53.672;10.014;2022-11-15T09:51:21;16.13;;;11.93;;
29362;SDS011;16349;53.672;10.014;2022-11-15T09:53:56;18.80;;;13.07;;
29362;SDS011;16349;53.672;10.014;2022-11-15T09:56:28;18.63;;;13.27;;
29362;SDS011;16349;53.672;10.014;2022-11-15T09:58:59;20.93;;;13.10;;
29362;SDS011;16349;53.672;10.014;2022-11-15T10:01:39;18.13;;;12.57;;
29362;SDS011;16349;53.672;10.014;2022-11-15T10:04:13;18.30;;;13.10;;
29362;SDS011;16349;53.672;10.014;2022-11-15T10:06:42;18.83;;;12.33;;
29362;SDS011;16349;53.672;10.014;2022-11-15T10:09:14;16.40;;;13.07;;
29362;SDS011;16349;53.672;10.014;2022-11-15T10:11:45;19.50;;;12.43;;
29362;SDS011;16349;53.672;10.014;2022-11-15T10:14:13;20.10;;;12.60;;
29362;SDS011;16349;53.672;10.014;2022-11-15T10:17:06;18.73;;;12.97;;
29362;SDS011;16349;53.672;10.014;2022-11-15T10:19:50;20.23;;;12.23;;
29362;SDS011;16349;53.672;10.014;2022-11-15T10:22:25;18.00;;;12.33;;
29362;SDS011;16349;53.672;10.014;2022-11-15T10:25:10;17.23;;;11.50;;
29362;SDS011;16349;53.672;10.014;2022-11-15T10:27:50;16.90;;;11.97;;
29362;SDS011;16349;53.672;10.014;2022-11-15T10:30:20;16.03;;;12.57;;
29362;SDS011;16349;53.672;10.014;2022-11-15T10:32:48;19.17;;;12.10;;
29362;SDS011;16349;53.672;10.014;2022-11-15T10:35:21;18.23;;;12.17;;
29362;SDS011;16349;53.672;10.014;2022-11-15T10:37:50;18.03;;;11.60;;
29362;SDS011;16349;53.672;10.014;2022-11-15T10:40:18;17.53;;;11.87;;
29362;SDS011;16349;53.672;10.014;2022-11-15T10:42:47;15.83;;;11.37;;
29362;SDS011;16349;53.672;10.014;2022-11-15T10:45:25;15.27;;;11.37;;
29362;SDS011;16349;53.672;10.014;2022-11-15T10:47:54;15.43;;;11.50;;
29362;SDS011;16349;53.672;10.014;2022-11-15T10:50:52;16.60;;;11.87;;
29362;SDS011;16349;53.672;10.014;2022-11-15T10:53:25;13.20;;;11.13;;
29362;SDS011;16349;53.672;10.014;2022-11-15T10:55:56;13.20;;;10.60;;
29362;SDS011;16349;53.672;10.014;2022-11-15T10:58:32;13.60;;;11.70;;
29362;SDS011;16349;53.672;10.014;2022-11-15T11:01:10;15.03;;;11.43;;
29362;SDS011;16349;53.672;10.014;2022-11-15T11:03:40;14.90;;;11.33;;
29362;SDS011;16349;53.672;10.014;2022-11-15T11:06:12;14.83;;;11.40;;
29362;SDS011;16349;53.672;10.014;2022-11-15T11:08:43;14.67;;;10.50;;
29362;SDS011;16349;53.672;10.014;2022-11-15T11:11:21;16.07;;;11.60;;
29362;SDS011;16349;53.672;10.014;2022-11-15T11:13:48;14.73;;;10.23;;
29362;SDS011;16349;53.672;10.014;2022-11-15T11:16:18;14.40;;;9.97;;
29362;SDS011;16349;53.672;10.014;2022-11-15T11:19:02;13.93;;;10.83;;
29362;SDS011;16349;53.672;10.014;2022-11-15T11:21:38;19.10;;;10.53;;
29362;SDS011;16349;53.672;10.014;2022-11-15T11:24:14;14.00;;;10.33;;
29362;SDS011;16349;53.672;10.014;2022-11-15T11:26:54;13.03;;;10.70;;
29362;SDS011;16349;53.672;10.014;2022-11-15T11:29:32;18.10;;;10.30;;
29362;SDS011;16349;53.672;10.014;2022-11-15T11:32:10;16.27;;;9.60;;
29362;SDS011;16349;53.672;10.014;2022-11-15T11:34:50;13.80;;;9.83;;
29362;SDS011;16349;53.672;10.014;2022-11-15T11:37:27;12.03;;;10.13;;
29362;SDS011;16349;53.672;10.014;2022-11-15T11:40:00;14.43;;;9.70;;
29362;SDS011;16349;53.672;10.014;2022-11-15T11:42:39;11.40;;;9.40;;
29362;SDS011;16349;53.672;10.014;2022-11-15T11:45:15;11.73;;;9.17;;
29362;SDS011;16349;53.672;10.014;2022-11-15T11:47:51;10.63;;;8.70;;
29362;SDS011;16349;53.672;10.014;2022-11-15T11:50:26;15.63;;;9.23;;
29362;SDS011;16349;53.672;10.014;2022-11-15T11:53:17;13.80;;;10.10;;
29362;SDS011;16349;53.672;10.014;2022-11-15T11:55:56;11.87;;;8.80;;
29362;SDS011;16349;53.672;10.014;2022-11-15T11:58:29;10.57;;;8.30;;
29362;SDS011;16349;53.672;10.014;2022-11-15T12:01:12;11.67;;;8.83;;
29362;SDS011;16349;53.672;10.014;2022-11-15T12:03:44;10.83;;;9.03;;
29362;SDS011;16349;53.672;10.014;2022-11-15T12:06:17;10.13;;;8.67;;
29362;SDS011;16349;53.672;10.014;2022-11-15T12:08:52;11.00;;;8.73;;
29362;SDS011;16349;53.672;10.014;2022-11-15T12:11:28;10.67;;;9.00;;
29362;SDS011;16349;53.672;10.014;2022-11-15T12:14:03;11.20;;;9.27;;
29362;SDS011;16349;53.672;10.014;2022-11-15T12:16:35;12.23;;;8.97;;
29362;SDS011;16349;53.672;10.014;2022-11-15T12:19:07;10.63;;;9.13;;
29362;SDS011;16349;53.672;10.014;2022-11-15T12:21:35;12.27;;;8.47;;
29362;SDS011;16349;53.672;10.014;2022-11-15T12:24:11;10.37;;;8.63;;
29362;SDS011;16349;53.672;10.014;2022-11-15T12:27:05;10.33;;;8.93;;
29362;SDS011;16349;53.672;10.014;2022-11-15T12:29:43;12.00;;;8.63;;
29362;SDS011;16349;53.672;10.014;2022-11-15T12:32:18;12.10;;;9.00;;
29362;SDS011;16349;53.672;10.014;2022-11-15T12:34:52;10.60;;;8.83;;
29362;SDS011;16349;53.672;10.014;2022-11-15T12:40:22;11.13;;;8.83;;
29362;SDS011;16349;53.672;10.014;2022-11-15T12:42:58;11.13;;;8.97;;
29362;SDS011;16349;53.672;10.014;2022-11-15T12:45:27;11.57;;;8.47;;
29362;SDS011;16349;53.672;10.014;2022-11-15T12:47:56;17.70;;;9.17;;
29362;SDS011;16349;53.672;10.014;2022-11-15T12:51:08;10.30;;;8.10;;
29362;SDS011;16349;53.672;10.014;2022-11-15T12:53:35;9.63;;;8.40;;
29362;SDS011;16349;53.672;10.014;2022-11-15T12:56:16;9.23;;;8.23;;
29362;SDS011;16349;53.672;10.014;2022-11-15T12:58:48;11.93;;;7.53;;
29362;SDS011;16349;53.672;10.014;2022-11-15T13:04:25;9.83;;;8.40;;
29362;SDS011;16349;53.672;10.014;2022-11-15T13:06:55;9.70;;;7.73;;
29362;SDS011;16349;53.672;10.014;2022-11-15T13:15:31;11.77;;;8.07;;
29362;SDS011;16349;53.672;10.014;2022-11-15T13:20:52;10.77;;;8.00;;
29362;SDS011;16349;53.672;10.014;2022-11-15T13:23:20;11.13;;;8.10;;
29362;SDS011;16349;53.672;10.014;2022-11-15T13:25:54;9.53;;;7.97;;
29362;SDS011;16349;53.672;10.014;2022-11-15T13:28:34;10.57;;;7.67;;
29362;SDS011;16349;53.672;10.014;2022-11-15T13:31:14;10.83;;;7.70;;
29362;SDS011;16349;53.672;10.014;2022-11-15T13:33:56;9.60;;;7.93;;
29362;SDS011;16349;53.672;10.014;2022-11-15T13:36:26;8.67;;;7.50;;
29362;SDS011;16349;53.672;10.014;2022-11-15T13:38:55;8.77;;;7.83;;
29362;SDS011;16349;53.672;10.014;2022-11-15T13:41:24;8.73;;;7.07;;
29362;SDS011;16349;53.672;10.014;2022-11-15T13:43:53;9.03;;;7.40;;
29362;SDS011;16349;53.672;10.014;2022-11-15T13:46:23;8.90;;;7.33;;
29362;SDS011;16349;53.672;10.014;2022-11-15T13:48:51;10.33;;;7.50;;
29362;SDS011;16349;53.672;10.014;2022-11-15T13:51:21;9.83;;;7.53;;
29362;SDS011;16349;53.672;10.014;2022-11-15T13:53:56;9.80;;;7.80;;
29362;SDS011;16349;53.672;10.014;2022-11-15T13:56:27;8.73;;;7.13;;
29362;SDS011;16349;53.672;10.014;2022-11-15T13:58:58;10.33;;;7.33;;
29362;SDS011;16349;53.672;10.014;2022-11-15T14:01:27;8.93;;;7.60;;
29362;SDS011;16349;53.672;10.014;2022-11-15T14:03:58;10.00;;;8.00;;
29362;SDS011;16349;53.672;10.014;2022-11-15T14:06:28;8.00;;;7.20;;
29362;SDS011;16349;53.672;10.014;2022-11-15T14:12:02;7.93;;;6.80;;
29362;SDS011;16349;53.672;10.014;2022-11-15T14:14:52;7.73;;;7.03;;
29362;SDS011;16349;53.672;10.014;2022-11-15T14:17:20;9.13;;;6.70;;
29362;SDS011;16349;53.672;10.014;2022-11-15T14:19:59;8.63;;;6.10;;
29362;SDS011;16349;53.672;10.014;2022-11-15T14:22:29;9.20;;;6.40;;
29362;SDS011;16349;53.672;10.014;2022-11-15T14:25:07;10.17;;;7.27;;
29362;SDS011;16349;53.672;10.014;2022-11-15T14:27:42;8.80;;;6.63;;
29362;SDS011;16349;53.672;10.014;2022-11-15T14:30:14;9.10;;;7.23;;
29362;SDS011;16349;53.672;10.014;2022-11-15T14:32:43;8.30;;;6.73;;
29362;SDS011;16349;53.672;10.014;2022-11-15T14:35:12;8.30;;;7.40;;
29362;SDS011;16349;53.672;10.014;2022-11-15T14:37:42;9.50;;;7.10;;
29362;SDS011;16349;53.672;10.014;2022-11-15T14:40:12;8.90;;;6.80;;
29362;SDS011;16349;53.672;10.014;2022-11-15T14:42:40;8.10;;;7.23;;
29362;SDS011;16349;53.672;10.014;2022-11-15T14:45:09;11.70;;;7.23;;
29362;SDS011;16349;53.672;10.014;2022-11-15T14:47:40;9.07;;;7.20;;
29362;SDS011;16349;53.672;10.014;2022-11-15T14:50:10;10.57;;;7.53;;
29362;SDS011;16349;53.672;10.014;2022-11-15T14:52:38;9.20;;;7.77;;
29362;SDS011;16349;53.672;10.014;2022-11-15T14:55:11;8.17;;;7.37;;
29362;SDS011;16349;53.672;10.014;2022-11-15T14:57:41;9.40;;;7.33;;
29362;SDS011;16349;53.672;10.014;2022-11-15T15:00:08;11.83;;;7.03;;
29362;SDS011;16349;53.672;10.014;2022-11-15T15:02:40;10.20;;;7.07;;
29362;SDS011;16349;53.672;10.014;2022-11-15T15:05:15;7.67;;;6.97;;
29362;SDS011;16349;53.672;10.014;2022-11-15T15:07:43;8.87;;;7.30;;
29362;SDS011;16349;53.672;10.014;2022-11-15T15:10:11;11.53;;;8.20;;
29362;SDS011;16349;53.672;10.014;2022-11-15T15:12:39;9.07;;;7.23;;
29362;SDS011;16349;53.672;10.014;2022-11-15T15:15:08;11.43;;;7.43;;
29362;SDS011;16349;53.672;10.014;2022-11-15T15:17:43;9.17;;;6.93;;
29362;SDS011;16349;53.672;10.014;2022-11-15T15:20:10;10.73;;;7.90;;
29362;SDS011;16349;53.672;10.014;2022-11-15T15:22:37;11.63;;;7.83;;
29362;SDS011;16349;53.672;10.014;2022-11-15T15:25:14;8.07;;;7.20;;
29362;SDS011;16349;53.672;10.014;2022-11-15T15:27:47;9.17;;;7.07;;
29362;SDS011;16349;53.672;10.014;2022-11-15T15:30:14;10.40;;;8.00;;
29362;SDS011;16349;53.672;10.014;2022-11-15T15:32:43;10.37;;;7.60;;
29362;SDS011;16349;53.672;10.014;2022-11-15T15:35:11;8.03;;;7.13;;
29362;SDS011;16349;53.672;10.014;2022-11-15T15:37:38;8.00;;;7.07;;
29362;SDS011;16349;53.672;10.014;2022-11-15T15:40:08;8.43;;;7.37;;
29362;SDS011;16349;53.672;10.014;2022-11-15T15:42:39;8.03;;;6.77;;
29362;SDS011;16349;53.672;10.014;2022-11-15T15:45:06;13.27;;;7.70;;
29362;SDS011;16349;53.672;10.014;2022-11-15T15:47:34;9.60;;;8.13;;
29362;SDS011;16349;53.672;10.014;2022-11-15T15:50:03;8.37;;;7.13;;
29362;SDS011;16349;53.672;10.014;2022-11-15T15:52:36;8.97;;;7.53;;
29362;SDS011;16349;53.672;10.014;2022-11-15T15:55:06;9.63;;;7.80;;
29362;SDS011;16349;53.672;10.014;2022-11-15T15:57:33;8.33;;;7.53;;
29362;SDS011;16349;53.672;10.014;2022-11-15T16:00:00;8.97;;;7.57;;
29362;SDS011;16349;53.672;10.014;2022-11-15T16:02:37;9.07;;;7.47;;